Time;durP1;ratioP1;P1;durP2;ratioP2;P2;SDS_P1;SDS_P2;PMS_P1;PMS_P2;Temp;Humidity;BMP_temperature;BMP_pressure;BME280_temperature;BME280_humidity;BME280_pressure;Samples;Min_cycle;Max_cycle;Signal;HPM_P1;HPM_P2
2021/09/25 00:00:09;;;;;;;11.20;9.75;;;;;;;;;;4870551;28;20053;-57
2021/09/25 00:02:34;;;;;;;14.00;10.25;;;;;;;;;;4865559;28;20863;-57
2021/09/25 00:05:00;;;;;;;12.35;10.00;;;;;;;;;;4865567;28;20209;-57
2021/09/25 00:07:25;;;;;;;15.68;10.73;;;;;;;;;;4864528;28;20897;-57
2021/09/25 00:09:51;;;;;;;12.52;10.75;;;;;;;;;;4866286;28;20690;-57
2021/09/25 00:12:16;;;;;;;14.43;10.60;;;;;;;;;;4866671;28;20026;-57
2021/09/25 00:14:41;;;;;;;11.80;9.85;;;;;;;;;;4865363;28;20455;-57
2021/09/25 00:17:08;;;;;;;15.57;10.77;;;;;;;;;;4865331;28;21340;-57
2021/09/25 00:19:34;;;;;;;15.18;11.02;;;;;;;;;;4864865;28;20684;-57
2021/09/25 00:21:59;;;;;;;12.10;10.80;;;;;;;;;;4867801;28;20670;-57
2021/09/25 00:24:25;;;;;;;12.45;10.68;;;;;;;;;;4866178;28;20916;-58
2021/09/25 00:26:50;;;;;;;12.57;10.35;;;;;;;;;;4865691;28;20047;-57
2021/09/25 00:29:16;;;;;;;13.77;10.57;;;;;;;;;;4868185;28;20148;-57
2021/09/25 00:31:41;;;;;;;12.93;10.00;;;;;;;;;;4870266;28;20030;-57
2021/09/25 00:34:06;;;;;;;12.77;10.82;;;;;;;;;;4869016;28;20037;-57
2021/09/25 00:36:32;;;;;;;15.10;10.68;;;;;;;;;;4861549;28;20687;-58
2021/09/25 00:38:57;;;;;;;11.80;10.05;;;;;;;;;;4867810;28;20747;-58
2021/09/25 00:41:23;;;;;;;13.52;10.27;;;;;;;;;;4865607;28;20108;-58
2021/09/25 00:43:48;;;;;;;16.05;9.77;;;;;;;;;;4868068;28;20117;-57
2021/09/25 00:46:13;;;;;;;10.98;9.57;;;;;;;;;;4864182;28;20034;-57
2021/09/25 00:48:39;;;;;;;13.65;9.88;;;;;;;;;;4866258;28;20835;-57
2021/09/25 00:51:04;;;;;;;12.95;9.75;;;;;;;;;;4866433;28;20943;-55
2021/09/25 00:53:29;;;;;;;12.25;10.15;;;;;;;;;;4866137;28;20945;-57
2021/09/25 00:55:56;;;;;;;10.90;9.38;;;;;;;;;;4881492;28;20069;-57
2021/09/25 00:58:21;;;;;;;11.50;9.77;;;;;;;;;;4869694;28;20617;-58
2021/09/25 01:00:46;;;;;;;13.38;9.65;;;;;;;;;;4869087;28;20461;-57
2021/09/25 01:03:11;;;;;;;12.03;9.03;;;;;;;;;;4869093;28;20026;-56
2021/09/25 01:05:40;;;;;;;11.63;9.55;;;;;;;;;;4869736;28;20762;-57
2021/09/25 01:08:06;;;;;;;11.38;9.63;;;;;;;;;;4866523;28;20041;-57
2021/09/25 01:10:31;;;;;;;12.77;9.30;;;;;;;;;;4865513;28;20029;-57
2021/09/25 01:12:56;;;;;;;12.38;9.18;;;;;;;;;;4866374;28;21196;-59
2021/09/25 01:15:22;;;;;;;12.70;8.98;;;;;;;;;;4863405;28;20030;-58
2021/09/25 01:17:47;;;;;;;10.82;8.57;;;;;;;;;;4867411;28;20038;-59
2021/09/25 01:20:12;;;;;;;12.27;9.68;;;;;;;;;;4869729;28;20108;-58
2021/09/25 01:22:38;;;;;;;10.70;9.38;;;;;;;;;;4869194;28;20034;-58
2021/09/25 01:25:04;;;;;;;10.85;9.60;;;;;;;;;;4864323;28;20630;-58
2021/09/25 01:27:29;;;;;;;12.65;8.98;;;;;;;;;;4870486;28;20828;-58
2021/09/25 01:29:54;;;;;;;13.98;9.70;;;;;;;;;;4870122;28;20869;-58
2021/09/25 01:32:20;;;;;;;10.60;9.50;;;;;;;;;;4871623;28;21425;-58
2021/09/25 01:34:45;;;;;;;11.73;9.32;;;;;;;;;;4865704;28;20931;-58
2021/09/25 01:37:11;;;;;;;11.18;9.23;;;;;;;;;;4865804;28;20034;-58
2021/09/25 01:39:36;;;;;;;10.43;9.27;;;;;;;;;;4868205;28;20072;-58
2021/09/25 01:42:02;;;;;;;11.93;9.38;;;;;;;;;;4867499;28;21514;-58
2021/09/25 01:44:28;;;;;;;11.43;9.40;;;;;;;;;;4866875;28;20749;-59
2021/09/25 01:46:54;;;;;;;12.30;9.65;;;;;;;;;;4866794;28;20033;-59
2021/09/25 01:49:19;;;;;;;10.50;9.18;;;;;;;;;;4865403;28;20337;-59
2021/09/25 01:51:45;;;;;;;12.98;9.63;;;;;;;;;;4864793;28;20785;-58
2021/09/25 01:54:11;;;;;;;13.07;9.02;;;;;;;;;;4867587;28;20173;-58
2021/09/25 01:56:36;;;;;;;10.85;9.23;;;;;;;;;;4879642;28;20377;-58
2021/09/25 01:59:02;;;;;;;11.60;9.65;;;;;;;;;;4869228;28;20812;-59
2021/09/25 02:01:27;;;;;;;10.98;9.20;;;;;;;;;;4864886;28;20026;-58
2021/09/25 02:03:53;;;;;;;10.80;9.60;;;;;;;;;;4867729;28;20056;-59
2021/09/25 02:06:18;;;;;;;13.73;9.18;;;;;;;;;;4863546;28;20802;-58
2021/09/25 02:08:45;;;;;;;12.00;9.20;;;;;;;;;;4865381;28;20330;-58
2021/09/25 02:11:10;;;;;;;12.43;9.27;;;;;;;;;;4863882;28;21209;-58
2021/09/25 02:13:36;;;;;;;11.55;9.38;;;;;;;;;;4860740;28;20030;-58
2021/09/25 02:16:01;;;;;;;12.55;9.68;;;;;;;;;;4865673;28;23494;-58
2021/09/25 02:18:27;;;;;;;12.30;9.68;;;;;;;;;;4865890;28;20041;-58
2021/09/25 02:20:53;;;;;;;14.15;9.35;;;;;;;;;;4863883;28;20156;-58
2021/09/25 02:23:18;;;;;;;12.70;9.57;;;;;;;;;;4865845;28;20030;-58
2021/09/25 02:25:43;;;;;;;11.60;9.70;;;;;;;;;;4867295;28;20136;-58
2021/09/25 02:28:09;;;;;;;11.40;9.77;;;;;;;;;;4864510;28;20860;-58
2021/09/25 02:30:34;;;;;;;12.13;10.13;;;;;;;;;;4868624;28;20113;-58
2021/09/25 02:32:59;;;;;;;13.50;9.63;;;;;;;;;;4867568;28;21009;-58
2021/09/25 02:35:25;;;;;;;11.00;9.55;;;;;;;;;;4865743;28;20463;-59
2021/09/25 02:37:51;;;;;;;10.77;9.02;;;;;;;;;;4866120;28;21165;-58
2021/09/25 02:40:17;;;;;;;10.95;8.93;;;;;;;;;;4867919;28;20025;-58
2021/09/25 02:42:44;;;;;;;13.43;9.30;;;;;;;;;;4861590;28;20048;-58
2021/09/25 02:45:10;;;;;;;10.57;8.55;;;;;;;;;;4867398;28;20848;-58
2021/09/25 02:47:35;;;;;;;12.32;8.65;;;;;;;;;;4869649;28;20880;-58
2021/09/25 02:50:00;;;;;;;10.60;9.30;;;;;;;;;;4866680;28;20103;-58
2021/09/25 02:52:26;;;;;;;12.17;8.90;;;;;;;;;;4865742;28;20345;-58
2021/09/25 02:54:52;;;;;;;10.90;8.85;;;;;;;;;;4860447;28;20743;-58
2021/09/25 02:57:17;;;;;;;11.20;9.25;;;;;;;;;;4861424;28;20161;-58
2021/09/25 02:59:42;;;;;;;10.65;8.57;;;;;;;;;;4864605;28;20033;-58
2021/09/25 03:02:08;;;;;;;10.68;8.60;;;;;;;;;;4863111;28;20058;-59
2021/09/25 03:04:33;;;;;;;12.10;9.02;;;;;;;;;;4864567;28;20726;-58
2021/09/25 03:06:58;;;;;;;9.57;8.30;;;;;;;;;;4861493;28;20122;-58
2021/09/25 03:09:23;;;;;;;11.75;7.97;;;;;;;;;;4865519;28;20371;-58
2021/09/25 03:11:49;;;;;;;10.50;8.30;;;;;;;;;;4863458;28;20080;-58
2021/09/25 03:14:15;;;;;;;10.07;8.43;;;;;;;;;;4864026;28;20288;-58
2021/09/25 03:16:40;;;;;;;11.32;8.30;;;;;;;;;;4863895;28;20049;-59
2021/09/25 03:19:05;;;;;;;10.87;8.10;;;;;;;;;;4863553;28;21468;-58
2021/09/25 03:21:30;;;;;;;11.80;9.07;;;;;;;;;;4867623;28;20850;-58
2021/09/25 03:23:56;;;;;;;10.35;8.50;;;;;;;;;;4861912;28;21638;-58
2021/09/25 03:26:21;;;;;;;10.87;8.40;;;;;;;;;;4866823;28;24492;-58
2021/09/25 03:28:46;;;;;;;11.50;9.10;;;;;;;;;;4864431;28;20029;-58
2021/09/25 03:31:11;;;;;;;10.75;8.52;;;;;;;;;;4868367;28;20362;-58
2021/09/25 03:33:37;;;;;;;11.77;8.02;;;;;;;;;;4865351;28;20353;-58
2021/09/25 03:36:02;;;;;;;11.57;8.30;;;;;;;;;;4861315;28;20046;-57
2021/09/25 03:38:29;;;;;;;11.43;8.40;;;;;;;;;;4864161;28;21107;-58
2021/09/25 03:40:54;;;;;;;11.93;8.60;;;;;;;;;;4865918;28;20392;-58
2021/09/25 03:43:20;;;;;;;9.60;7.90;;;;;;;;;;4866608;28;20112;-58
2021/09/25 03:45:45;;;;;;;11.23;8.75;;;;;;;;;;4866534;28;20030;-58
2021/09/25 03:48:11;;;;;;;10.32;7.88;;;;;;;;;;4862069;28;20356;-57
2021/09/25 03:50:36;;;;;;;9.20;7.38;;;;;;;;;;4867626;28;20089;-58
2021/09/25 03:53:02;;;;;;;10.80;8.18;;;;;;;;;;4863617;28;20080;-59
2021/09/25 03:55:27;;;;;;;9.77;8.07;;;;;;;;;;4864062;28;20053;-58
2021/09/25 03:57:53;;;;;;;10.18;8.77;;;;;;;;;;4865093;28;20033;-59
2021/09/25 04:00:18;;;;;;;10.77;8.20;;;;;;;;;;4860876;28;20693;-55
2021/09/25 04:02:44;;;;;;;9.57;8.13;;;;;;;;;;4862703;28;20531;-58
2021/09/25 04:05:09;;;;;;;9.30;7.93;;;;;;;;;;4863144;28;20036;-58
2021/09/25 04:07:35;;;;;;;11.40;8.32;;;;;;;;;;4867203;28;20042;-58
2021/09/25 04:10:00;;;;;;;9.27;7.80;;;;;;;;;;4866406;28;20133;-59
2021/09/25 04:12:26;;;;;;;9.77;8.32;;;;;;;;;;4869331;28;20484;-58
2021/09/25 04:14:51;;;;;;;10.07;8.32;;;;;;;;;;4864883;28;20022;-59
2021/09/25 04:17:16;;;;;;;10.63;8.45;;;;;;;;;;4862647;28;20040;-58
2021/09/25 04:19:41;;;;;;;9.30;8.00;;;;;;;;;;4865604;28;20026;-58
2021/09/25 04:22:07;;;;;;;12.20;8.23;;;;;;;;;;4865276;28;20037;-58
2021/09/25 04:24:32;;;;;;;10.43;8.20;;;;;;;;;;4864301;28;20234;-58
2021/09/25 04:26:57;;;;;;;10.10;7.75;;;;;;;;;;4860182;28;20104;-58
2021/09/25 04:29:23;;;;;;;10.27;8.47;;;;;;;;;;4864695;28;20026;-58
2021/09/25 04:31:48;;;;;;;10.07;8.43;;;;;;;;;;4871564;28;20344;-57
2021/09/25 04:34:15;;;;;;;9.70;7.93;;;;;;;;;;4865289;28;20062;-57
2021/09/25 04:36:41;;;;;;;12.30;8.45;;;;;;;;;;4868894;28;20057;-58
2021/09/25 04:39:06;;;;;;;9.60;8.20;;;;;;;;;;4872871;28;20393;-57
2021/09/25 04:41:32;;;;;;;11.52;8.23;;;;;;;;;;4869155;28;20680;-58
2021/09/25 04:43:57;;;;;;;9.90;8.00;;;;;;;;;;4872041;28;20811;-56
2021/09/25 04:46:22;;;;;;;10.82;7.82;;;;;;;;;;4870458;28;20683;-56
2021/09/25 04:48:48;;;;;;;10.95;8.25;;;;;;;;;;4867918;28;20030;-57
2021/09/25 04:51:14;;;;;;;10.80;8.15;;;;;;;;;;4869529;28;20044;-58
2021/09/25 04:53:39;;;;;;;13.07;8.75;;;;;;;;;;4869198;28;20517;-58
2021/09/25 04:56:04;;;;;;;10.40;8.20;;;;;;;;;;4869980;28;20038;-57
2021/09/25 04:58:30;;;;;;;9.50;8.40;;;;;;;;;;4867190;28;20277;-58
2021/09/25 05:00:55;;;;;;;10.43;8.07;;;;;;;;;;4872202;28;20033;-58
2021/09/25 05:03:21;;;;;;;9.68;8.27;;;;;;;;;;4869348;28;20449;-58
2021/09/25 05:05:46;;;;;;;10.55;7.97;;;;;;;;;;4867212;28;20726;-58
2021/09/25 05:08:11;;;;;;;13.70;8.25;;;;;;;;;;4870433;28;20033;-57
2021/09/25 05:10:37;;;;;;;12.80;8.30;;;;;;;;;;4870912;28;20218;-58
2021/09/25 05:13:02;;;;;;;9.93;8.23;;;;;;;;;;4872579;28;20392;-58
2021/09/25 05:15:27;;;;;;;9.88;8.13;;;;;;;;;;4872402;28;20681;-58
2021/09/25 05:17:53;;;;;;;11.73;8.77;;;;;;;;;;4871294;28;20044;-58
2021/09/25 05:20:18;;;;;;;10.13;8.60;;;;;;;;;;4868543;28;20313;-58
2021/09/25 05:22:43;;;;;;;10.53;8.77;;;;;;;;;;4868544;28;20362;-58
2021/09/25 05:25:09;;;;;;;11.52;8.30;;;;;;;;;;4866377;28;20789;-58
2021/09/25 05:27:34;;;;;;;9.38;7.97;;;;;;;;;;4869056;28;20029;-58
2021/09/25 05:29:59;;;;;;;13.38;8.40;;;;;;;;;;4872225;28;20152;-58
2021/09/25 05:32:24;;;;;;;10.73;8.13;;;;;;;;;;4867392;28;20786;-57
2021/09/25 05:34:50;;;;;;;10.20;8.07;;;;;;;;;;4868671;28;20117;-58
2021/09/25 05:37:17;;;;;;;9.47;8.33;;;;;;;;;;4869700;28;20176;-57
2021/09/25 05:39:42;;;;;;;11.25;8.30;;;;;;;;;;4870240;28;20033;-58
2021/09/25 05:42:08;;;;;;;10.68;7.90;;;;;;;;;;4869952;28;20143;-58
2021/09/25 05:44:34;;;;;;;10.07;7.90;;;;;;;;;;4870680;28;20197;-57
2021/09/25 05:46:59;;;;;;;10.77;8.25;;;;;;;;;;4870236;28;20034;-57
2021/09/25 05:49:24;;;;;;;11.02;8.50;;;;;;;;;;4865078;28;20112;-58
2021/09/25 05:51:50;;;;;;;11.57;8.10;;;;;;;;;;4869736;28;20363;-58
2021/09/25 05:54:15;;;;;;;11.18;8.30;;;;;;;;;;4866227;28;20039;-57
2021/09/25 05:56:41;;;;;;;11.75;8.48;;;;;;;;;;4869632;28;20122;-58
2021/09/25 05:59:06;;;;;;;13.77;8.47;;;;;;;;;;4866796;28;20044;-57
2021/09/25 06:01:31;;;;;;;10.95;8.02;;;;;;;;;;4856635;28;21186;-58
2021/09/25 06:03:57;;;;;;;9.30;7.78;;;;;;;;;;4871001;28;20116;-58
2021/09/25 06:06:22;;;;;;;12.20;8.18;;;;;;;;;;4864541;28;20049;-57
2021/09/25 06:08:47;;;;;;;9.80;8.68;;;;;;;;;;4863664;28;20030;-57
2021/09/25 06:11:13;;;;;;;11.20;8.43;;;;;;;;;;4867477;28;21456;-58
2021/09/25 06:13:38;;;;;;;10.25;8.32;;;;;;;;;;4871166;28;20034;-57
2021/09/25 06:16:04;;;;;;;9.50;8.27;;;;;;;;;;4861190;28;20030;-58
2021/09/25 06:18:29;;;;;;;12.38;8.40;;;;;;;;;;4866852;28;20103;-58
2021/09/25 06:20:54;;;;;;;11.60;9.03;;;;;;;;;;4865007;28;20120;-57
2021/09/25 06:23:20;;;;;;;12.52;8.88;;;;;;;;;;4865750;28;20733;-57
2021/09/25 06:25:45;;;;;;;12.30;9.55;;;;;;;;;;4875784;28;20038;-57
2021/09/25 06:28:10;;;;;;;10.47;8.97;;;;;;;;;;4865867;28;21060;-58
2021/09/25 06:30:40;;;;;;;10.90;9.13;;;;;;;;;;4856525;28;20891;-58
2021/09/25 06:33:06;;;;;;;10.93;9.13;;;;;;;;;;4871229;28;20640;-58
2021/09/25 06:35:31;;;;;;;12.02;9.02;;;;;;;;;;4872311;28;20587;-58
2021/09/25 06:37:56;;;;;;;10.30;8.93;;;;;;;;;;4867486;28;20705;-57
2021/09/25 06:40:21;;;;;;;15.00;9.03;;;;;;;;;;4865499;28;20033;-57
2021/09/25 06:42:47;;;;;;;12.18;8.80;;;;;;;;;;4863709;28;20765;-58
2021/09/25 06:45:12;;;;;;;12.23;8.80;;;;;;;;;;4866407;28;20465;-58
2021/09/25 06:47:37;;;;;;;12.95;9.13;;;;;;;;;;4860804;28;20269;-58
2021/09/25 06:50:03;;;;;;;11.97;9.07;;;;;;;;;;4877717;28;20362;-58
2021/09/25 06:52:28;;;;;;;10.73;9.13;;;;;;;;;;4876149;28;20272;-58
2021/09/25 06:54:53;;;;;;;15.95;9.95;;;;;;;;;;4864598;28;20798;-58
2021/09/25 06:57:19;;;;;;;14.38;10.45;;;;;;;;;;4860162;28;20390;-58
2021/09/25 06:59:44;;;;;;;11.98;9.90;;;;;;;;;;4866401;28;20227;-56
2021/09/25 07:02:09;;;;;;;13.83;10.00;;;;;;;;;;4868723;28;20052;-58
2021/09/25 07:04:36;;;;;;;12.75;10.02;;;;;;;;;;4865567;28;20933;-58
2021/09/25 07:07:01;;;;;;;11.60;9.23;;;;;;;;;;4860368;28;20071;-58
2021/09/25 07:09:26;;;;;;;10.75;8.65;;;;;;;;;;4863714;28;20037;-57
2021/09/25 07:11:52;;;;;;;12.57;9.73;;;;;;;;;;4865105;28;20488;-58
2021/09/25 07:14:17;;;;;;;14.47;9.77;;;;;;;;;;4865210;28;21912;-57
2021/09/25 07:16:44;;;;;;;11.90;9.23;;;;;;;;;;4864941;28;20706;-58
2021/09/25 07:19:10;;;;;;;11.45;9.07;;;;;;;;;;4866256;28;20164;-58
2021/09/25 07:21:35;;;;;;;10.45;9.30;;;;;;;;;;4866688;28;20089;-58
2021/09/25 07:24:01;;;;;;;12.68;9.25;;;;;;;;;;4861813;28;20877;-58
2021/09/25 07:26:26;;;;;;;11.00;8.95;;;;;;;;;;4863583;28;20061;-58
2021/09/25 07:28:51;;;;;;;10.43;9.07;;;;;;;;;;4869781;28;20032;-57
2021/09/25 07:31:17;;;;;;;12.70;8.63;;;;;;;;;;4865441;28;21394;-57
2021/09/25 07:33:42;;;;;;;12.48;8.50;;;;;;;;;;4865787;28;20337;-57
2021/09/25 07:36:07;;;;;;;13.55;8.35;;;;;;;;;;4864126;28;20029;-57
2021/09/25 07:38:33;;;;;;;12.20;9.32;;;;;;;;;;4867864;28;20041;-56
2021/09/25 07:40:58;;;;;;;12.88;9.25;;;;;;;;;;4866619;28;20040;-57
2021/09/25 07:43:24;;;;;;;11.35;8.52;;;;;;;;;;4862747;28;20034;-57
2021/09/25 07:45:50;;;;;;;12.90;9.00;;;;;;;;;;4865517;28;21528;-57
2021/09/25 07:48:15;;;;;;;10.13;8.70;;;;;;;;;;4863957;28;20181;-57
2021/09/25 07:50:40;;;;;;;13.73;8.00;;;;;;;;;;4866435;28;20025;-57
2021/09/25 07:53:06;;;;;;;11.90;8.13;;;;;;;;;;4867154;28;20558;-57
2021/09/25 07:55:32;;;;;;;10.32;8.65;;;;;;;;;;4865799;28;20034;-57
2021/09/25 07:57:57;;;;;;;11.00;8.38;;;;;;;;;;4866908;28;20298;-57
2021/09/25 08:00:23;;;;;;;10.60;8.27;;;;;;;;;;4865207;28;20033;-57
2021/09/25 08:02:48;;;;;;;11.30;8.30;;;;;;;;;;4868095;28;20632;-57
2021/09/25 08:05:13;;;;;;;10.90;8.40;;;;;;;;;;4867843;28;20037;-57
2021/09/25 08:07:39;;;;;;;9.80;8.43;;;;;;;;;;4869543;28;20022;-57
2021/09/25 08:10:05;;;;;;;10.75;7.70;;;;;;;;;;4865320;28;20661;-57
2021/09/25 08:12:31;;;;;;;10.40;7.78;;;;;;;;;;4866963;28;20462;-57
2021/09/25 08:14:57;;;;;;;9.98;8.60;;;;;;;;;;4868260;28;20117;-57
2021/09/25 08:17:22;;;;;;;9.13;8.15;;;;;;;;;;4864939;28;20092;-57
2021/09/25 08:19:47;;;;;;;10.35;8.07;;;;;;;;;;4866986;28;20504;-56
2021/09/25 08:22:13;;;;;;;9.70;7.93;;;;;;;;;;4857010;28;20033;-57
2021/09/25 08:24:38;;;;;;;11.05;7.95;;;;;;;;;;4862661;28;20326;-57
2021/09/25 08:27:04;;;;;;;10.88;7.80;;;;;;;;;;4867641;28;20026;-57
2021/09/25 08:29:29;;;;;;;11.52;7.18;;;;;;;;;;4871918;28;20140;-56
2021/09/25 08:31:54;;;;;;;9.30;7.63;;;;;;;;;;4865055;28;20583;-57
2021/09/25 08:34:19;;;;;;;9.57;7.33;;;;;;;;;;4863698;28;20605;-57
2021/09/25 08:36:45;;;;;;;10.13;7.67;;;;;;;;;;4869190;28;20535;-57
2021/09/25 08:39:11;;;;;;;10.63;7.68;;;;;;;;;;4866293;28;21210;-57
2021/09/25 08:41:36;;;;;;;11.07;7.60;;;;;;;;;;4868426;28;20241;-57
2021/09/25 08:44:02;;;;;;;12.43;8.40;;;;;;;;;;4859919;28;20041;-57
2021/09/25 08:46:28;;;;;;;10.40;7.68;;;;;;;;;;4864314;28;20347;-57
2021/09/25 08:48:54;;;;;;;10.02;7.95;;;;;;;;;;4865688;28;20038;-57
2021/09/25 08:51:19;;;;;;;9.27;7.53;;;;;;;;;;4868353;28;20092;-57
2021/09/25 08:53:44;;;;;;;8.48;7.43;;;;;;;;;;4860429;28;20456;-58
2021/09/25 08:56:12;;;;;;;9.52;7.80;;;;;;;;;;4867252;28;20030;-57
2021/09/25 08:58:37;;;;;;;9.00;7.90;;;;;;;;;;4865904;28;20046;-56
2021/09/25 09:01:04;;;;;;;9.98;7.80;;;;;;;;;;4870028;28;20469;-57
2021/09/25 09:03:34;;;;;;;10.02;7.68;;;;;;;;;;4859799;28;20030;-57
2021/09/25 09:06:10;;;;;;;8.98;7.88;;;;;;;;;;4855139;28;20083;-56
2021/09/25 09:08:36;;;;;;;10.52;7.70;;;;;;;;;;4864076;28;20404;-57
2021/09/25 09:11:02;;;;;;;10.35;7.43;;;;;;;;;;4871984;28;20061;-57
2021/09/25 09:13:28;;;;;;;10.05;7.68;;;;;;;;;;4978858;28;20114;-56
2021/09/25 09:15:53;;;;;;;9.70;6.82;;;;;;;;;;4998258;28;20028;-56
2021/09/25 09:18:19;;;;;;;10.57;7.60;;;;;;;;;;4999602;28;20064;-57
2021/09/25 09:21:04;;;;;;;10.38;9.23;;;;;;;;;;4999108;28;20041;-56
2021/09/25 09:23:29;;;;;;;10.13;7.53;;;;;;;;;;4995113;28;20528;-57
2021/09/25 09:25:54;;;;;;;9.32;7.20;;;;;;;;;;4997919;28;20029;-56
2021/09/25 09:28:21;;;;;;;10.40;7.60;;;;;;;;;;4892678;28;20423;-57
2021/09/25 09:30:47;;;;;;;9.65;7.70;;;;;;;;;;4883005;28;20292;-57
2021/09/25 09:33:32;;;;;;;10.35;7.93;;;;;;;;;;4884193;28;20044;-57
2021/09/25 09:36:15;;;;;;;8.93;7.20;;;;;;;;;;4956207;28;20076;-56
2021/09/25 09:38:41;;;;;;;11.27;8.80;;;;;;;;;;4999106;28;20059;-57
2021/09/25 09:41:06;;;;;;;12.73;8.63;;;;;;;;;;4996074;28;20117;-57
2021/09/25 09:43:32;;;;;;;10.15;7.78;;;;;;;;;;4998772;28;20440;-56
2021/09/25 09:45:57;;;;;;;9.93;7.23;;;;;;;;;;5001732;28;20030;-57
2021/09/25 09:48:23;;;;;;;8.93;7.32;;;;;;;;;;4998839;28;20319;-56
2021/09/25 09:50:50;;;;;;;10.77;7.80;;;;;;;;;;4996120;28;20092;-56
2021/09/25 09:53:16;;;;;;;10.13;8.00;;;;;;;;;;4961075;28;20036;-57
2021/09/25 09:55:41;;;;;;;26.02;21.08;;;;;;;;;;4866882;28;20436;-58
2021/09/25 09:58:07;;;;;;;8.30;7.05;;;;;;;;;;4862220;28;21132;-57
2021/09/25 10:00:33;;;;;;;8.98;6.80;;;;;;;;;;4867941;28;20097;-57
2021/09/25 10:02:59;;;;;;;9.25;7.47;;;;;;;;;;4869734;28;20509;-56
2021/09/25 10:05:24;;;;;;;9.25;7.88;;;;;;;;;;4859780;28;24417;-56
2021/09/25 10:07:50;;;;;;;9.00;7.03;;;;;;;;;;4880958;28;21508;-56
2021/09/25 10:10:15;;;;;;;9.98;7.60;;;;;;;;;;4978070;28;20276;-56
2021/09/25 10:12:41;;;;;;;9.02;6.63;;;;;;;;;;5000336;28;20025;-56
2021/09/25 10:15:07;;;;;;;9.48;7.38;;;;;;;;;;4999979;28;20018;-57
2021/09/25 10:17:32;;;;;;;9.15;6.78;;;;;;;;;;5001216;28;20044;-56
2021/09/25 10:19:59;;;;;;;8.00;6.63;;;;;;;;;;5000492;28;20034;-57
2021/09/25 10:22:26;;;;;;;10.82;6.97;;;;;;;;;;4996688;28;20033;-57
2021/09/25 10:24:51;;;;;;;8.63;6.70;;;;;;;;;;4978617;28;20884;-57
2021/09/25 10:27:17;;;;;;;11.13;7.40;;;;;;;;;;4996806;28;20133;-57
2021/09/25 10:29:46;;;;;;;8.50;7.00;;;;;;;;;;5011999;28;20030;-58
2021/09/25 10:32:12;;;;;;;;;;;;;;;;;;4994486;28;20562;-57
2021/09/25 10:34:37;;;;;;;8.88;6.25;;;;;;;;;;5000445;28;20348;-57
2021/09/25 10:37:04;;;;;;;9.48;6.40;;;;;;;;;;4998565;28;20485;-57
2021/09/25 10:39:34;;;;;;;9.88;6.68;;;;;;;;;;4999856;28;20509;-57
2021/09/25 10:42:21;;;;;;;9.25;7.05;;;;;;;;;;4998052;28;20065;-57
2021/09/25 10:44:50;;;;;;;9.95;6.85;;;;;;;;;;4993398;28;20127;-57
2021/09/25 10:47:17;;;;;;;8.18;6.20;;;;;;;;;;4993219;28;20107;-58
2021/09/25 10:49:53;;;;;;;9.65;6.93;;;;;;;;;;5000177;28;20006;-57
2021/09/25 10:52:21;;;;;;;7.68;6.40;;;;;;;;;;4999455;28;20037;-57
2021/09/25 10:55:06;;;;;;;10.70;6.90;;;;;;;;;;4995427;28;20021;-57
2021/09/25 10:57:31;;;;;;;12.48;10.52;;;;;;;;;;4859468;28;20041;-57
2021/09/25 11:00:15;;;;;;;9.07;6.90;;;;;;;;;;4852734;28;21856;-57
2021/09/25 11:02:42;;;;;;;9.88;6.88;;;;;;;;;;4853881;28;20196;-57
2021/09/25 11:05:07;;;;;;;8.52;6.60;;;;;;;;;;4846977;28;20026;-58
2021/09/25 11:07:41;;;;;;;10.90;7.57;;;;;;;;;;4850314;28;20614;-58
2021/09/25 11:10:06;;;;;;;9.38;7.13;;;;;;;;;;4847769;28;20968;-58
2021/09/25 11:12:42;;;;;;;9.15;7.35;;;;;;;;;;4851881;28;20654;-58
2021/09/25 11:15:28;;;;;;;11.00;7.93;;;;;;;;;;4849704;28;20046;-57
2021/09/25 11:18:13;;;;;;;16.08;12.50;;;;;;;;;;4860752;28;20099;-58
2021/09/25 11:20:39;;;;;;;10.00;7.80;;;;;;;;;;4864960;28;20559;-57
2021/09/25 11:23:04;;;;;;;9.50;7.53;;;;;;;;;;4865993;28;20038;-59
2021/09/25 11:25:30;;;;;;;8.45;7.07;;;;;;;;;;4858475;28;20030;-59
2021/09/25 11:27:56;;;;;;;9.63;7.47;;;;;;;;;;4870459;28;20025;-59
2021/09/25 11:30:22;;;;;;;8.15;6.72;;;;;;;;;;4859350;28;20784;-59
2021/09/25 11:32:49;;;;;;;11.45;8.13;;;;;;;;;;4878940;28;20096;-59
2021/09/25 11:35:23;;;;;;;8.77;7.10;;;;;;;;;;4878257;28;20062;-59
2021/09/25 11:37:50;;;;;;;8.77;6.90;;;;;;;;;;4879111;28;20038;-59
2021/09/25 11:40:16;;;;;;;8.18;6.95;;;;;;;;;;4865568;28;20030;-59
2021/09/25 11:42:41;;;;;;;10.63;7.55;;;;;;;;;;4863751;28;20030;-59
2021/09/25 11:45:08;;;;;;;9.37;6.57;;;;;;;;;;4867298;28;20511;-58
2021/09/25 11:47:40;;;;;;;9.95;6.53;;;;;;;;;;4864783;28;20725;-58
2021/09/25 11:50:15;;;;;;;8.77;6.60;;;;;;;;;;4867057;28;20944;-59
2021/09/25 11:52:41;;;;;;;8.25;6.80;;;;;;;;;;4859935;28;20139;-59
2021/09/25 11:55:07;;;;;;;8.45;7.05;;;;;;;;;;4864088;28;20025;-59
2021/09/25 11:57:32;;;;;;;8.48;6.85;;;;;;;;;;4860160;28;20147;-59
2021/09/25 11:59:57;;;;;;;9.00;6.57;;;;;;;;;;4866712;28;20058;-59
2021/09/25 12:02:38;;;;;;;9.73;6.68;;;;;;;;;;4866122;28;20199;-59
2021/09/25 12:05:05;;;;;;;11.02;7.22;;;;;;;;;;4866457;28;20538;-59
2021/09/25 12:07:39;;;;;;;9.10;7.55;;;;;;;;;;4857745;28;20794;-59
2021/09/25 12:10:05;;;;;;;9.40;7.10;;;;;;;;;;4876338;28;23851;-58
2021/09/25 12:12:30;;;;;;;9.13;6.72;;;;;;;;;;4852054;28;20129;-59
2021/09/25 12:14:55;;;;;;;11.02;6.60;;;;;;;;;;4864220;28;24505;-59
2021/09/25 12:17:21;;;;;;;9.07;6.97;;;;;;;;;;4864032;28;20030;-59
2021/09/25 12:19:46;;;;;;;10.73;6.80;;;;;;;;;;4860646;28;20037;-59
2021/09/25 12:22:23;;;;;;;8.43;7.18;;;;;;;;;;4861982;28;21128;-59
2021/09/25 12:24:49;;;;;;;9.07;7.20;;;;;;;;;;4859705;28;20112;-59
2021/09/25 12:27:24;;;;;;;8.88;6.95;;;;;;;;;;4865777;28;20475;-57
2021/09/25 12:29:50;;;;;;;10.88;7.20;;;;;;;;;;4861566;28;20030;-58
2021/09/25 12:32:19;;;;;;;8.60;7.07;;;;;;;;;;4859214;28;20041;-57
2021/09/25 12:34:47;;;;;;;10.68;7.15;;;;;;;;;;4862397;28;20477;-57
2021/09/25 12:37:13;;;;;;;9.75;7.38;;;;;;;;;;4865195;28;24161;-57
2021/09/25 12:39:39;;;;;;;10.07;7.15;;;;;;;;;;4868250;28;20037;-57
2021/09/25 12:42:04;;;;;;;9.55;6.50;;;;;;;;;;4860511;28;20037;-57
2021/09/25 12:44:34;;;;;;;9.68;6.63;;;;;;;;;;4867162;28;20021;-57
2021/09/25 12:47:00;;;;;;;11.18;7.68;;;;;;;;;;4864212;28;20897;-57
2021/09/25 12:49:33;;;;;;;10.05;6.82;;;;;;;;;;4866395;28;20741;-57
2021/09/25 12:52:10;;;;;;;9.10;7.32;;;;;;;;;;4867685;28;20772;-59
2021/09/25 12:54:36;;;;;;;10.65;7.15;;;;;;;;;;4867731;28;20026;-58
2021/09/25 12:57:16;;;;;;;8.75;7.32;;;;;;;;;;4866287;28;20111;-59
2021/09/25 12:59:43;;;;;;;10.90;6.85;;;;;;;;;;4868602;28;20056;-59
2021/09/25 13:02:11;;;;;;;9.52;7.57;;;;;;;;;;4876902;28;20060;-59
2021/09/25 13:04:46;;;;;;;9.38;7.70;;;;;;;;;;4883167;28;20088;-57
2021/09/25 13:07:12;;;;;;;11.57;8.15;;;;;;;;;;4884615;28;20128;-58
2021/09/25 13:09:51;;;;;;;9.45;7.65;;;;;;;;;;4869495;28;20034;-58
2021/09/25 13:12:25;;;;;;;10.82;7.30;;;;;;;;;;4859128;28;20567;-57
2021/09/25 13:15:20;;;;;;;10.80;6.85;;;;;;;;;;4863812;28;20484;-58
2021/09/25 13:17:46;;;;;;;10.55;7.07;;;;;;;;;;4852903;28;20050;-58
2021/09/25 13:20:13;;;;;;;10.13;7.15;;;;;;;;;;4867924;28;20529;-58
2021/09/25 13:22:41;;;;;;;10.00;7.78;;;;;;;;;;4868252;28;23517;-58
2021/09/25 13:25:06;;;;;;;13.00;7.35;;;;;;;;;;4865484;28;20493;-57
2021/09/25 13:27:32;;;;;;;10.98;7.72;;;;;;;;;;4867351;28;21001;-58
2021/09/25 13:29:58;;;;;;;12.13;7.85;;;;;;;;;;4870472;28;20674;-58
2021/09/25 13:32:23;;;;;;;9.95;7.35;;;;;;;;;;4865264;28;23606;-58
2021/09/25 13:34:49;;;;;;;10.77;7.45;;;;;;;;;;4867395;28;20882;-58
2021/09/25 13:37:14;;;;;;;9.23;7.88;;;;;;;;;;4869936;28;20130;-59
2021/09/25 13:39:39;;;;;;;12.18;8.43;;;;;;;;;;4869630;28;20033;-58
2021/09/25 13:42:05;;;;;;;9.02;7.28;;;;;;;;;;4862111;28;20030;-58
2021/09/25 13:44:30;;;;;;;12.13;7.47;;;;;;;;;;4867732;28;20615;-58
2021/09/25 13:46:55;;;;;;;10.27;7.43;;;;;;;;;;4866766;28;20445;-58
2021/09/25 13:49:21;;;;;;;9.32;7.70;;;;;;;;;;4867478;28;20281;-58
2021/09/25 13:51:46;;;;;;;8.98;7.93;;;;;;;;;;4863335;28;20995;-59
2021/09/25 13:54:12;;;;;;;10.10;7.82;;;;;;;;;;4867440;28;20033;-57
2021/09/25 13:56:37;;;;;;;9.77;8.05;;;;;;;;;;4857956;28;20026;-58
2021/09/25 13:59:03;;;;;;;10.23;8.18;;;;;;;;;;4868882;28;20033;-58
2021/09/25 14:01:28;;;;;;;10.53;8.27;;;;;;;;;;4866177;28;20029;-58
2021/09/25 14:03:54;;;;;;;11.02;8.32;;;;;;;;;;4880550;28;20604;-57
2021/09/25 14:06:19;;;;;;;11.43;8.10;;;;;;;;;;4866722;28;20586;-57
2021/09/25 14:08:45;;;;;;;11.48;8.55;;;;;;;;;;4866539;28;20041;-57
2021/09/25 14:11:10;;;;;;;13.20;9.10;;;;;;;;;;4866830;28;20267;-57
2021/09/25 14:13:37;;;;;;;11.98;9.20;;;;;;;;;;4863305;28;21215;-57
2021/09/25 14:16:02;;;;;;;10.77;9.30;;;;;;;;;;4864818;28;20034;-58
2021/09/25 14:18:28;;;;;;;10.70;8.38;;;;;;;;;;4861241;28;20119;-58
2021/09/25 14:20:53;;;;;;;12.77;9.00;;;;;;;;;;4865062;28;20022;-57
2021/09/25 14:23:18;;;;;;;13.80;10.10;;;;;;;;;;4862503;28;20269;-58
2021/09/25 14:25:44;;;;;;;13.27;9.93;;;;;;;;;;4865381;28;20144;-57
2021/09/25 14:28:12;;;;;;;14.95;12.88;;;;;;;;;;4866108;28;20109;-58